sensor_id;sensor_type;location;lat;lon;timestamp;P1;durP1;ratioP1;P2;durP2;ratioP2
6017;SDS011;3037;51.068;13.780;2024-03-08T00:00:05;38.60;;;21.10;;
6017;SDS011;3037;51.068;13.780;2024-03-08T00:02:34;35.07;;;20.83;;
6017;SDS011;3037;51.068;13.780;2024-03-08T00:05:01;40.97;;;23.23;;
6017;SDS011;3037;51.068;13.780;2024-03-08T00:07:28;40.23;;;22.43;;
6017;SDS011;3037;51.068;13.780;2024-03-08T00:09:53;39.33;;;21.07;;
6017;SDS011;3037;51.068;13.780;2024-03-08T00:12:19;39.63;;;22.40;;
6017;SDS011;3037;51.068;13.780;2024-03-08T00:14:45;36.97;;;20.77;;
6017;SDS011;3037;51.068;13.780;2024-03-08T00:17:10;35.10;;;21.57;;
6017;SDS011;3037;51.068;13.780;2024-03-08T00:19:36;40.57;;;22.47;;
6017;SDS011;3037;51.068;13.780;2024-03-08T00:22:02;36.00;;;23.10;;
6017;SDS011;3037;51.068;13.780;2024-03-08T00:24:27;47.43;;;23.93;;
6017;SDS011;3037;51.068;13.780;2024-03-08T00:26:54;45.17;;;23.53;;
6017;SDS011;3037;51.068;13.780;2024-03-08T00:29:19;40.40;;;23.33;;
6017;SDS011;3037;51.068;13.780;2024-03-08T00:31:45;39.63;;;24.00;;
6017;SDS011;3037;51.068;13.780;2024-03-08T00:34:10;43.30;;;24.77;;
6017;SDS011;3037;51.068;13.780;2024-03-08T00:36:37;45.63;;;23.37;;
6017;SDS011;3037;51.068;13.780;2024-03-08T00:39:02;38.50;;;24.73;;
6017;SDS011;3037;51.068;13.780;2024-03-08T00:41:31;41.77;;;22.67;;
6017;SDS011;3037;51.068;13.780;2024-03-08T00:43:57;38.93;;;20.67;;
6017;SDS011;3037;51.068;13.780;2024-03-08T00:46:23;40.33;;;22.00;;
6017;SDS011;3037;51.068;13.780;2024-03-08T00:48:48;43.03;;;22.93;;
6017;SDS011;3037;51.068;13.780;2024-03-08T00:51:14;38.80;;;23.90;;
6017;SDS011;3037;51.068;13.780;2024-03-08T00:53:41;36.67;;;22.20;;
6017;SDS011;3037;51.068;13.780;2024-03-08T00:56:07;39.37;;;21.90;;
6017;SDS011;3037;51.068;13.780;2024-03-08T00:58:36;33.20;;;21.40;;
6017;SDS011;3037;51.068;13.780;2024-03-08T01:01:01;37.63;;;21.07;;
6017;SDS011;3037;51.068;13.780;2024-03-08T01:03:27;40.03;;;22.73;;
6017;SDS011;3037;51.068;13.780;2024-03-08T01:05:53;43.03;;;22.83;;
6017;SDS011;3037;51.068;13.780;2024-03-08T01:08:19;50.23;;;25.20;;
6017;SDS011;3037;51.068;13.780;2024-03-08T01:10:44;42.50;;;23.23;;
6017;SDS011;3037;51.068;13.780;2024-03-08T01:13:10;38.40;;;23.07;;
6017;SDS011;3037;51.068;13.780;2024-03-08T01:15:35;43.17;;;23.33;;
6017;SDS011;3037;51.068;13.780;2024-03-08T01:18:01;36.80;;;22.43;;
6017;SDS011;3037;51.068;13.780;2024-03-08T01:20:27;36.33;;;21.10;;
6017;SDS011;3037;51.068;13.780;2024-03-08T01:22:52;39.10;;;21.03;;
6017;SDS011;3037;51.068;13.780;2024-03-08T01:25:18;44.00;;;22.53;;
6017;SDS011;3037;51.068;13.780;2024-03-08T01:27:44;40.73;;;22.50;;
6017;SDS011;3037;51.068;13.780;2024-03-08T01:30:09;36.10;;;20.90;;
6017;SDS011;3037;51.068;13.780;2024-03-08T01:32:35;42.83;;;22.73;;
6017;SDS011;3037;51.068;13.780;2024-03-08T01:35:01;38.87;;;23.80;;
6017;SDS011;3037;51.068;13.780;2024-03-08T01:37:27;39.93;;;21.53;;
6017;SDS011;3037;51.068;13.780;2024-03-08T01:39:54;42.80;;;24.80;;
6017;SDS011;3037;51.068;13.780;2024-03-08T01:42:20;41.80;;;23.40;;
6017;SDS011;3037;51.068;13.780;2024-03-08T01:44:45;41.37;;;21.67;;
6017;SDS011;3037;51.068;13.780;2024-03-08T01:47:11;41.00;;;22.73;;
6017;SDS011;3037;51.068;13.780;2024-03-08T01:49:37;37.90;;;21.60;;
6017;SDS011;3037;51.068;13.780;2024-03-08T01:52:03;40.27;;;20.57;;
6017;SDS011;3037;51.068;13.780;2024-03-08T01:54:28;33.83;;;19.27;;
6017;SDS011;3037;51.068;13.780;2024-03-08T01:56:55;36.17;;;22.10;;
6017;SDS011;3037;51.068;13.780;2024-03-08T01:59:22;39.27;;;22.00;;
6017;SDS011;3037;51.068;13.780;2024-03-08T02:01:48;42.13;;;24.73;;
6017;SDS011;3037;51.068;13.780;2024-03-08T02:04:14;42.97;;;24.90;;
6017;SDS011;3037;51.068;13.780;2024-03-08T02:06:39;44.23;;;24.83;;
6017;SDS011;3037;51.068;13.780;2024-03-08T02:09:05;37.90;;;24.30;;
6017;SDS011;3037;51.068;13.780;2024-03-08T02:11:34;45.90;;;23.17;;
6017;SDS011;3037;51.068;13.780;2024-03-08T02:14:01;45.57;;;25.57;;
6017;SDS011;3037;51.068;13.780;2024-03-08T02:16:26;37.83;;;23.37;;
6017;SDS011;3037;51.068;13.780;2024-03-08T02:18:52;39.40;;;22.50;;
6017;SDS011;3037;51.068;13.780;2024-03-08T02:21:18;47.57;;;24.40;;
6017;SDS011;3037;51.068;13.780;2024-03-08T02:23:44;39.73;;;24.63;;
6017;SDS011;3037;51.068;13.780;2024-03-08T02:26:09;46.00;;;23.93;;
6017;SDS011;3037;51.068;13.780;2024-03-08T02:28:35;40.87;;;24.00;;
6017;SDS011;3037;51.068;13.780;2024-03-08T02:31:01;41.30;;;23.00;;
6017;SDS011;3037;51.068;13.780;2024-03-08T02:33:27;44.80;;;25.23;;
6017;SDS011;3037;51.068;13.780;2024-03-08T02:35:53;38.80;;;22.93;;
6017;SDS011;3037;51.068;13.780;2024-03-08T02:38:20;51.37;;;24.53;;
6017;SDS011;3037;51.068;13.780;2024-03-08T02:40:47;49.80;;;22.10;;
6017;SDS011;3037;51.068;13.780;2024-03-08T02:43:14;42.57;;;22.97;;
6017;SDS011;3037;51.068;13.780;2024-03-08T02:45:40;35.63;;;22.43;;
6017;SDS011;3037;51.068;13.780;2024-03-08T02:48:10;48.10;;;24.00;;
6017;SDS011;3037;51.068;13.780;2024-03-08T02:50:36;46.13;;;24.37;;
6017;SDS011;3037;51.068;13.780;2024-03-08T02:53:22;43.90;;;24.90;;
6017;SDS011;3037;51.068;13.780;2024-03-08T02:55:49;52.83;;;26.80;;
6017;SDS011;3037;51.068;13.780;2024-03-08T02:58:15;45.17;;;24.50;;
6017;SDS011;3037;51.068;13.780;2024-03-08T03:00:40;48.97;;;27.07;;
6017;SDS011;3037;51.068;13.780;2024-03-08T03:03:06;50.83;;;27.30;;
6017;SDS011;3037;51.068;13.780;2024-03-08T03:05:32;49.57;;;26.00;;
6017;SDS011;3037;51.068;13.780;2024-03-08T03:07:59;45.90;;;25.40;;
6017;SDS011;3037;51.068;13.780;2024-03-08T03:10:24;47.73;;;26.50;;
6017;SDS011;3037;51.068;13.780;2024-03-08T03:12:50;45.33;;;25.70;;
6017;SDS011;3037;51.068;13.780;2024-03-08T03:15:17;48.80;;;27.77;;
6017;SDS011;3037;51.068;13.780;2024-03-08T03:17:49;48.13;;;23.77;;
6017;SDS011;3037;51.068;13.780;2024-03-08T03:20:18;41.73;;;23.37;;
6017;SDS011;3037;51.068;13.780;2024-03-08T03:23:05;42.67;;;25.37;;
6017;SDS011;3037;51.068;13.780;2024-03-08T03:25:33;40.03;;;24.10;;
6017;SDS011;3037;51.068;13.780;2024-03-08T03:28:00;43.70;;;24.23;;
6017;SDS011;3037;51.068;13.780;2024-03-08T03:30:29;49.17;;;25.03;;
6017;SDS011;3037;51.068;13.780;2024-03-08T03:32:58;44.50;;;24.73;;
6017;SDS011;3037;51.068;13.780;2024-03-08T03:35:25;49.90;;;27.27;;
6017;SDS011;3037;51.068;13.780;2024-03-08T03:37:56;46.60;;;25.40;;
6017;SDS011;3037;51.068;13.780;2024-03-08T03:40:35;46.23;;;26.30;;
6017;SDS011;3037;51.068;13.780;2024-03-08T03:43:02;45.57;;;26.87;;
6017;SDS011;3037;51.068;13.780;2024-03-08T03:45:28;49.27;;;26.67;;
6017;SDS011;3037;51.068;13.780;2024-03-08T03:47:53;50.80;;;27.33;;
6017;SDS011;3037;51.068;13.780;2024-03-08T03:50:19;51.57;;;28.03;;
6017;SDS011;3037;51.068;13.780;2024-03-08T03:52:45;40.70;;;25.20;;
6017;SDS011;3037;51.068;13.780;2024-03-08T03:55:11;46.63;;;26.53;;
6017;SDS011;3037;51.068;13.780;2024-03-08T03:57:38;50.23;;;26.10;;
6017;SDS011;3037;51.068;13.780;2024-03-08T04:00:04;56.50;;;26.63;;
6017;SDS011;3037;51.068;13.780;2024-03-08T04:02:31;53.83;;;26.73;;
6017;SDS011;3037;51.068;13.780;2024-03-08T04:04:56;56.57;;;28.20;;
6017;SDS011;3037;51.068;13.780;2024-03-08T04:07:22;51.77;;;28.90;;
6017;SDS011;3037;51.068;13.780;2024-03-08T04:09:47;48.63;;;27.57;;
6017;SDS011;3037;51.068;13.780;2024-03-08T04:12:13;46.13;;;25.40;;
6017;SDS011;3037;51.068;13.780;2024-03-08T04:14:41;41.87;;;25.10;;
6017;SDS011;3037;51.068;13.780;2024-03-08T04:17:07;42.67;;;25.27;;
6017;SDS011;3037;51.068;13.780;2024-03-08T04:19:33;44.03;;;26.77;;
6017;SDS011;3037;51.068;13.780;2024-03-08T04:22:00;46.93;;;26.93;;
6017;SDS011;3037;51.068;13.780;2024-03-08T04:24:26;53.30;;;26.93;;
6017;SDS011;3037;51.068;13.780;2024-03-08T04:26:51;51.23;;;27.87;;
6017;SDS011;3037;51.068;13.780;2024-03-08T04:29:18;52.30;;;30.40;;
6017;SDS011;3037;51.068;13.780;2024-03-08T04:31:43;50.40;;;28.90;;
6017;SDS011;3037;51.068;13.780;2024-03-08T04:34:09;55.70;;;28.30;;
6017;SDS011;3037;51.068;13.780;2024-03-08T04:36:35;47.93;;;27.27;;
6017;SDS011;3037;51.068;13.780;2024-03-08T04:39:00;53.67;;;28.73;;
6017;SDS011;3037;51.068;13.780;2024-03-08T04:41:26;47.70;;;27.57;;
6017;SDS011;3037;51.068;13.780;2024-03-08T04:43:51;48.87;;;27.53;;
6017;SDS011;3037;51.068;13.780;2024-03-08T04:46:17;44.90;;;27.07;;
6017;SDS011;3037;51.068;13.780;2024-03-08T04:48:43;44.83;;;27.00;;
6017;SDS011;3037;51.068;13.780;2024-03-08T04:51:08;50.33;;;27.13;;
6017;SDS011;3037;51.068;13.780;2024-03-08T04:53:34;46.20;;;23.80;;
6017;SDS011;3037;51.068;13.780;2024-03-08T04:56:00;53.80;;;27.47;;
6017;SDS011;3037;51.068;13.780;2024-03-08T04:58:30;53.40;;;29.10;;
6017;SDS011;3037;51.068;13.780;2024-03-08T05:00:57;50.20;;;26.03;;
6017;SDS011;3037;51.068;13.780;2024-03-08T05:03:22;57.20;;;28.30;;
6017;SDS011;3037;51.068;13.780;2024-03-08T05:05:51;56.77;;;26.90;;
6017;SDS011;3037;51.068;13.780;2024-03-08T05:08:18;50.13;;;28.30;;
6017;SDS011;3037;51.068;13.780;2024-03-08T05:10:43;54.63;;;29.47;;
6017;SDS011;3037;51.068;13.780;2024-03-08T05:13:09;48.77;;;27.30;;
6017;SDS011;3037;51.068;13.780;2024-03-08T05:15:35;53.60;;;28.30;;
6017;SDS011;3037;51.068;13.780;2024-03-08T05:18:01;54.30;;;28.80;;
6017;SDS011;3037;51.068;13.780;2024-03-08T05:20:27;45.67;;;25.73;;
6017;SDS011;3037;51.068;13.780;2024-03-08T05:22:52;56.37;;;28.27;;
6017;SDS011;3037;51.068;13.780;2024-03-08T05:25:18;54.60;;;27.70;;
6017;SDS011;3037;51.068;13.780;2024-03-08T05:27:43;56.07;;;29.57;;
6017;SDS011;3037;51.068;13.780;2024-03-08T05:30:09;47.60;;;27.50;;
6017;SDS011;3037;51.068;13.780;2024-03-08T05:32:40;54.00;;;27.47;;
6017;SDS011;3037;51.068;13.780;2024-03-08T05:35:09;47.33;;;27.10;;
6017;SDS011;3037;51.068;13.780;2024-03-08T05:37:36;47.03;;;26.70;;
6017;SDS011;3037;51.068;13.780;2024-03-08T05:40:01;46.97;;;26.17;;
6017;SDS011;3037;51.068;13.780;2024-03-08T05:42:28;50.00;;;27.53;;
6017;SDS011;3037;51.068;13.780;2024-03-08T05:44:53;54.57;;;27.90;;
6017;SDS011;3037;51.068;13.780;2024-03-08T05:47:22;51.43;;;28.07;;
6017;SDS011;3037;51.068;13.780;2024-03-08T05:49:47;48.33;;;28.70;;
6017;SDS011;3037;51.068;13.780;2024-03-08T05:52:13;53.13;;;29.07;;
6017;SDS011;3037;51.068;13.780;2024-03-08T05:54:39;54.23;;;26.33;;
6017;SDS011;3037;51.068;13.780;2024-03-08T05:57:06;57.60;;;28.97;;
6017;SDS011;3037;51.068;13.780;2024-03-08T05:59:31;49.03;;;27.70;;
6017;SDS011;3037;51.068;13.780;2024-03-08T06:01:56;54.63;;;26.33;;
6017;SDS011;3037;51.068;13.780;2024-03-08T06:04:22;49.93;;;28.97;;
6017;SDS011;3037;51.068;13.780;2024-03-08T06:06:48;43.93;;;26.30;;
6017;SDS011;3037;51.068;13.780;2024-03-08T06:09:13;45.90;;;27.70;;
6017;SDS011;3037;51.068;13.780;2024-03-08T06:11:42;51.20;;;27.73;;
6017;SDS011;3037;51.068;13.780;2024-03-08T06:14:08;48.00;;;26.70;;
6017;SDS011;3037;51.068;13.780;2024-03-08T06:16:33;51.43;;;26.40;;
6017;SDS011;3037;51.068;13.780;2024-03-08T06:19:00;44.10;;;25.90;;
6017;SDS011;3037;51.068;13.780;2024-03-08T06:21:29;42.77;;;25.77;;
6017;SDS011;3037;51.068;13.780;2024-03-08T06:23:55;44.00;;;26.87;;
6017;SDS011;3037;51.068;13.780;2024-03-08T06:26:22;49.60;;;25.47;;
6017;SDS011;3037;51.068;13.780;2024-03-08T06:28:49;52.47;;;26.30;;
6017;SDS011;3037;51.068;13.780;2024-03-08T06:31:15;58.17;;;27.10;;
6017;SDS011;3037;51.068;13.780;2024-03-08T06:33:41;49.63;;;27.60;;
6017;SDS011;3037;51.068;13.780;2024-03-08T06:36:07;52.53;;;27.77;;
6017;SDS011;3037;51.068;13.780;2024-03-08T06:38:33;61.50;;;26.87;;
6017;SDS011;3037;51.068;13.780;2024-03-08T06:40:59;51.97;;;26.27;;
6017;SDS011;3037;51.068;13.780;2024-03-08T06:43:28;50.10;;;27.10;;
6017;SDS011;3037;51.068;13.780;2024-03-08T06:45:59;57.73;;;28.83;;
6017;SDS011;3037;51.068;13.780;2024-03-08T06:48:24;48.97;;;28.47;;
6017;SDS011;3037;51.068;13.780;2024-03-08T06:50:50;50.00;;;26.67;;
6017;SDS011;3037;51.068;13.780;2024-03-08T06:53:15;65.40;;;26.30;;
6017;SDS011;3037;51.068;13.780;2024-03-08T06:55:43;39.93;;;23.43;;
6017;SDS011;3037;51.068;13.780;2024-03-08T06:58:09;40.80;;;22.80;;
6017;SDS011;3037;51.068;13.780;2024-03-08T07:00:35;44.60;;;24.60;;
6017;SDS011;3037;51.068;13.780;2024-03-08T07:03:01;39.10;;;23.00;;
6017;SDS011;3037;51.068;13.780;2024-03-08T07:05:28;38.70;;;22.07;;
6017;SDS011;3037;51.068;13.780;2024-03-08T07:07:54;38.40;;;22.60;;
6017;SDS011;3037;51.068;13.780;2024-03-08T07:10:20;43.03;;;23.30;;
6017;SDS011;3037;51.068;13.780;2024-03-08T07:12:48;35.30;;;21.73;;
6017;SDS011;3037;51.068;13.780;2024-03-08T07:15:14;42.03;;;22.97;;
6017;SDS011;3037;51.068;13.780;2024-03-08T07:17:40;42.83;;;23.07;;
6017;SDS011;3037;51.068;13.780;2024-03-08T07:20:06;42.13;;;22.77;;
6017;SDS011;3037;51.068;13.780;2024-03-08T07:22:36;39.30;;;22.97;;
6017;SDS011;3037;51.068;13.780;2024-03-08T07:25:04;36.60;;;21.83;;
6017;SDS011;3037;51.068;13.780;2024-03-08T07:27:52;39.03;;;23.10;;
6017;SDS011;3037;51.068;13.780;2024-03-08T07:30:20;38.97;;;23.40;;
6017;SDS011;3037;51.068;13.780;2024-03-08T07:33:05;38.07;;;24.07;;
6017;SDS011;3037;51.068;13.780;2024-03-08T07:35:32;39.33;;;23.23;;
6017;SDS011;3037;51.068;13.780;2024-03-08T07:37:58;37.17;;;22.00;;
6017;SDS011;3037;51.068;13.780;2024-03-08T07:40:25;38.13;;;25.03;;
6017;SDS011;3037;51.068;13.780;2024-03-08T07:42:50;32.43;;;21.13;;
6017;SDS011;3037;51.068;13.780;2024-03-08T07:45:17;35.70;;;23.53;;
6017;SDS011;3037;51.068;13.780;2024-03-08T07:47:42;41.47;;;22.37;;
6017;SDS011;3037;51.068;13.780;2024-03-08T07:50:08;43.70;;;24.27;;
6017;SDS011;3037;51.068;13.780;2024-03-08T07:52:34;36.20;;;22.20;;
6017;SDS011;3037;51.068;13.780;2024-03-08T07:55:03;34.70;;;23.67;;
6017;SDS011;3037;51.068;13.780;2024-03-08T07:57:30;38.80;;;24.10;;
6017;SDS011;3037;51.068;13.780;2024-03-08T07:59:56;44.90;;;23.30;;
6017;SDS011;3037;51.068;13.780;2024-03-08T08:02:22;42.07;;;26.10;;
6017;SDS011;3037;51.068;13.780;2024-03-08T08:04:48;40.93;;;25.07;;
6017;SDS011;3037;51.068;13.780;2024-03-08T08:07:13;39.40;;;24.37;;
6017;SDS011;3037;51.068;13.780;2024-03-08T08:09:39;41.97;;;26.03;;
6017;SDS011;3037;51.068;13.780;2024-03-08T08:12:07;38.50;;;22.20;;
6017;SDS011;3037;51.068;13.780;2024-03-08T08:14:36;41.83;;;24.63;;
6017;SDS011;3037;51.068;13.780;2024-03-08T08:17:06;37.43;;;22.13;;
6017;SDS011;3037;51.068;13.780;2024-03-08T08:19:33;33.30;;;24.37;;
6017;SDS011;3037;51.068;13.780;2024-03-08T08:22:00;39.10;;;22.80;;
6017;SDS011;3037;51.068;13.780;2024-03-08T08:24:27;34.10;;;22.83;;
6017;SDS011;3037;51.068;13.780;2024-03-08T08:26:53;38.30;;;25.60;;
6017;SDS011;3037;51.068;13.780;2024-03-08T08:29:18;35.83;;;23.17;;
6017;SDS011;3037;51.068;13.780;2024-03-08T08:31:45;36.03;;;23.73;;
6017;SDS011;3037;51.068;13.780;2024-03-08T08:34:11;32.70;;;23.10;;
6017;SDS011;3037;51.068;13.780;2024-03-08T08:36:39;45.37;;;24.57;;
6017;SDS011;3037;51.068;13.780;2024-03-08T08:39:05;34.60;;;22.57;;
6017;SDS011;3037;51.068;13.780;2024-03-08T08:41:37;32.30;;;22.60;;
6017;SDS011;3037;51.068;13.780;2024-03-08T08:44:02;33.90;;;21.97;;
6017;SDS011;3037;51.068;13.780;2024-03-08T08:46:28;28.70;;;21.40;;
6017;SDS011;3037;51.068;13.780;2024-03-08T08:48:54;32.77;;;21.70;;
6017;SDS011;3037;51.068;13.780;2024-03-08T08:51:19;33.60;;;21.33;;
6017;SDS011;3037;51.068;13.780;2024-03-08T08:53:44;27.77;;;19.90;;
6017;SDS011;3037;51.068;13.780;2024-03-08T08:56:14;33.20;;;20.93;;
6017;SDS011;3037;51.068;13.780;2024-03-08T08:58:41;27.03;;;19.13;;
6017;SDS011;3037;51.068;13.780;2024-03-08T09:01:07;31.30;;;19.77;;
6017;SDS011;3037;51.068;13.780;2024-03-08T09:03:34;26.57;;;18.73;;
6017;SDS011;3037;51.068;13.780;2024-03-08T09:06:02;30.00;;;19.40;;
6017;SDS011;3037;51.068;13.780;2024-03-08T09:08:30;24.70;;;18.47;;
6017;SDS011;3037;51.068;13.780;2024-03-08T09:10:56;28.70;;;18.47;;
6017;SDS011;3037;51.068;13.780;2024-03-08T09:13:21;26.87;;;18.27;;
6017;SDS011;3037;51.068;13.780;2024-03-08T09:15:47;30.33;;;19.50;;
6017;SDS011;3037;51.068;13.780;2024-03-08T09:18:13;28.37;;;17.83;;
6017;SDS011;3037;51.068;13.780;2024-03-08T09:20:39;26.67;;;19.20;;
6017;SDS011;3037;51.068;13.780;2024-03-08T09:23:06;28.93;;;20.10;;
6017;SDS011;3037;51.068;13.780;2024-03-08T09:25:32;28.50;;;17.57;;
6017;SDS011;3037;51.068;13.780;2024-03-08T09:27:58;29.60;;;17.93;;
6017;SDS011;3037;51.068;13.780;2024-03-08T09:30:24;27.70;;;18.33;;
6017;SDS011;3037;51.068;13.780;2024-03-08T09:32:49;22.53;;;17.30;;
6017;SDS011;3037;51.068;13.780;2024-03-08T09:35:16;27.87;;;19.33;;
6017;SDS011;3037;51.068;13.780;2024-03-08T09:37:41;24.43;;;18.30;;
6017;SDS011;3037;51.068;13.780;2024-03-08T09:40:07;28.73;;;17.27;;
6017;SDS011;3037;51.068;13.780;2024-03-08T09:42:40;24.20;;;17.37;;
6017;SDS011;3037;51.068;13.780;2024-03-08T09:45:08;26.40;;;17.33;;
6017;SDS011;3037;51.068;13.780;2024-03-08T09:47:40;25.13;;;18.07;;
6017;SDS011;3037;51.068;13.780;2024-03-08T09:50:07;24.20;;;15.53;;
6017;SDS011;3037;51.068;13.780;2024-03-08T09:52:38;22.40;;;17.10;;
6017;SDS011;3037;51.068;13.780;2024-03-08T09:55:05;27.00;;;17.60;;
6017;SDS011;3037;51.068;13.780;2024-03-08T09:57:32;27.07;;;17.70;;
6017;SDS011;3037;51.068;13.780;2024-03-08T09:59:58;25.00;;;16.87;;
6017;SDS011;3037;51.068;13.780;2024-03-08T10:02:24;21.07;;;16.10;;
6017;SDS011;3037;51.068;13.780;2024-03-08T10:04:50;23.67;;;15.00;;
6017;SDS011;3037;51.068;13.780;2024-03-08T10:07:18;19.97;;;15.00;;
6017;SDS011;3037;51.068;13.780;2024-03-08T10:09:43;24.33;;;16.00;;
6017;SDS011;3037;51.068;13.780;2024-03-08T10:12:15;23.30;;;16.57;;
6017;SDS011;3037;51.068;13.780;2024-03-08T10:14:44;25.80;;;16.50;;
6017;SDS011;3037;51.068;13.780;2024-03-08T10:17:11;26.70;;;16.57;;
6017;SDS011;3037;51.068;13.780;2024-03-08T10:19:37;21.67;;;16.53;;
6017;SDS011;3037;51.068;13.780;2024-03-08T10:22:03;27.27;;;16.93;;
6017;SDS011;3037;51.068;13.780;2024-03-08T10:24:29;22.10;;;16.70;;
6017;SDS011;3037;51.068;13.780;2024-03-08T10:26:58;22.30;;;16.83;;
6017;SDS011;3037;51.068;13.780;2024-03-08T10:29:25;18.87;;;14.40;;
6017;SDS011;3037;51.068;13.780;2024-03-08T10:31:51;23.23;;;15.97;;
6017;SDS011;3037;51.068;13.780;2024-03-08T10:34:16;27.50;;;17.00;;
6017;SDS011;3037;51.068;13.780;2024-03-08T10:36:42;26.60;;;17.70;;
6017;SDS011;3037;51.068;13.780;2024-03-08T10:39:17;30.33;;;19.27;;
6017;SDS011;3037;51.068;13.780;2024-03-08T10:41:49;27.60;;;19.43;;
6017;SDS011;3037;51.068;13.780;2024-03-08T10:47:03;27.80;;;18.73;;
6017;SDS011;3037;51.068;13.780;2024-03-08T10:49:51;27.60;;;17.47;;
6017;SDS011;3037;51.068;13.780;2024-03-08T10:52:20;24.77;;;18.33;;
6017;SDS011;3037;51.068;13.780;2024-03-08T10:54:47;24.97;;;16.83;;
6017;SDS011;3037;51.068;13.780;2024-03-08T10:57:14;28.33;;;17.33;;
6017;SDS011;3037;51.068;13.780;2024-03-08T10:59:43;24.87;;;16.90;;
6017;SDS011;3037;51.068;13.780;2024-03-08T11:02:11;24.37;;;17.17;;
6017;SDS011;3037;51.068;13.780;2024-03-08T11:04:37;26.20;;;16.80;;
6017;SDS011;3037;51.068;13.780;2024-03-08T11:07:03;21.27;;;17.20;;
6017;SDS011;3037;51.068;13.780;2024-03-08T11:09:32;23.10;;;16.70;;
6017;SDS011;3037;51.068;13.780;2024-03-08T11:12:18;24.07;;;17.40;;
6017;SDS011;3037;51.068;13.780;2024-03-08T11:14:50;25.60;;;18.30;;
6017;SDS011;3037;51.068;13.780;2024-03-08T11:17:20;25.47;;;16.70;;
6017;SDS011;3037;51.068;13.780;2024-03-08T11:19:50;29.50;;;17.80;;
6017;SDS011;3037;51.068;13.780;2024-03-08T11:22:21;27.83;;;17.60;;
6017;SDS011;3037;51.068;13.780;2024-03-08T11:25:10;21.67;;;15.77;;
6017;SDS011;3037;51.068;13.780;2024-03-08T11:28:08;25.17;;;16.93;;
6017;SDS011;3037;51.068;13.780;2024-03-08T11:30:33;22.20;;;15.27;;
6017;SDS011;3037;51.068;13.780;2024-03-08T11:33:00;30.40;;;16.60;;
6017;SDS011;3037;51.068;13.780;2024-03-08T11:35:28;23.30;;;15.77;;
6017;SDS011;3037;51.068;13.780;2024-03-08T11:37:53;28.40;;;17.10;;
6017;SDS011;3037;51.068;13.780;2024-03-08T11:40:19;26.63;;;16.43;;
6017;SDS011;3037;51.068;13.780;2024-03-08T11:42:46;21.73;;;14.80;;
6017;SDS011;3037;51.068;13.780;2024-03-08T11:45:12;27.80;;;15.93;;
6017;SDS011;3037;51.068;13.780;2024-03-08T11:47:41;25.30;;;15.67;;
6017;SDS011;3037;51.068;13.780;2024-03-08T11:50:07;18.80;;;13.80;;
6017;SDS011;3037;51.068;13.780;2024-03-08T11:52:36;20.27;;;15.33;;
6017;SDS011;3037;51.068;13.780;2024-03-08T11:55:02;19.80;;;15.10;;
6017;SDS011;3037;51.068;13.780;2024-03-08T11:57:30;19.13;;;14.47;;
6017;SDS011;3037;51.068;13.780;2024-03-08T11:59:56;22.40;;;14.13;;
6017;SDS011;3037;51.068;13.780;2024-03-08T12:02:23;21.27;;;13.60;;
6017;SDS011;3037;51.068;13.780;2024-03-08T12:04:56;18.50;;;13.57;;
6017;SDS011;3037;51.068;13.780;2024-03-08T12:07:23;16.63;;;11.47;;
6017;SDS011;3037;51.068;13.780;2024-03-08T12:12:44;17.45;;;12.15;;
6017;SDS011;3037;51.068;13.780;2024-03-08T12:15:36;18.63;;;13.77;;
6017;SDS011;3037;51.068;13.780;2024-03-08T12:18:01;19.03;;;13.47;;
6017;SDS011;3037;51.068;13.780;2024-03-08T12:20:29;16.50;;;11.87;;
6017;SDS011;3037;51.068;13.780;2024-03-08T12:22:55;16.27;;;11.50;;
6017;SDS011;3037;51.068;13.780;2024-03-08T12:25:22;18.87;;;12.10;;
6017;SDS011;3037;51.068;13.780;2024-03-08T12:27:51;15.60;;;11.23;;
6017;SDS011;3037;51.068;13.780;2024-03-08T12:30:22;17.47;;;11.97;;
6017;SDS011;3037;51.068;13.780;2024-03-08T12:32:55;18.67;;;13.03;;
6017;SDS011;3037;51.068;13.780;2024-03-08T12:35:22;18.97;;;13.07;;
6017;SDS011;3037;51.068;13.780;2024-03-08T12:37:50;17.20;;;12.47;;
6017;SDS011;3037;51.068;13.780;2024-03-08T12:40:18;18.83;;;12.33;;
6017;SDS011;3037;51.068;13.780;2024-03-08T12:42:50;16.00;;;11.50;;
6017;SDS011;3037;51.068;13.780;2024-03-08T12:45:16;22.87;;;12.23;;
6017;SDS011;3037;51.068;13.780;2024-03-08T12:47:41;21.33;;;12.27;;
6017;SDS011;3037;51.068;13.780;2024-03-08T12:50:07;20.63;;;13.33;;
6017;SDS011;3037;51.068;13.780;2024-03-08T12:52:34;17.90;;;11.03;;
6017;SDS011;3037;51.068;13.780;2024-03-08T12:55:00;14.93;;;10.97;;
6017;SDS011;3037;51.068;13.780;2024-03-08T12:57:28;19.33;;;9.77;;
6017;SDS011;3037;51.068;13.780;2024-03-08T12:59:54;13.80;;;12.37;;
6017;SDS011;3037;51.068;13.780;2024-03-08T13:02:20;18.63;;;11.57;;
6017;SDS011;3037;51.068;13.780;2024-03-08T13:04:45;19.47;;;12.37;;
6017;SDS011;3037;51.068;13.780;2024-03-08T13:07:21;19.73;;;13.20;;
6017;SDS011;3037;51.068;13.780;2024-03-08T13:09:48;18.90;;;12.87;;
6017;SDS011;3037;51.068;13.780;2024-03-08T13:12:14;18.70;;;12.70;;
6017;SDS011;3037;51.068;13.780;2024-03-08T13:14:40;18.30;;;13.00;;
6017;SDS011;3037;51.068;13.780;2024-03-08T13:17:06;21.13;;;13.67;;
6017;SDS011;3037;51.068;13.780;2024-03-08T13:19:36;17.53;;;13.30;;
6017;SDS011;3037;51.068;13.780;2024-03-08T13:22:03;16.47;;;12.13;;
6017;SDS011;3037;51.068;13.780;2024-03-08T13:24:32;20.67;;;12.80;;
6017;SDS011;3037;51.068;13.780;2024-03-08T13:26:58;12.93;;;10.10;;
6017;SDS011;3037;51.068;13.780;2024-03-08T13:29:24;14.97;;;10.47;;
6017;SDS011;3037;51.068;13.780;2024-03-08T13:31:50;15.67;;;10.57;;
6017;SDS011;3037;51.068;13.780;2024-03-08T13:34:20;17.70;;;11.20;;
6017;SDS011;3037;51.068;13.780;2024-03-08T13:36:54;15.00;;;11.57;;
6017;SDS011;3037;51.068;13.780;2024-03-08T13:39:24;16.90;;;10.63;;
6017;SDS011;3037;51.068;13.780;2024-03-08T13:41:51;14.80;;;10.97;;
6017;SDS011;3037;51.068;13.780;2024-03-08T13:44:16;16.93;;;10.77;;
6017;SDS011;3037;51.068;13.780;2024-03-08T13:46:42;15.90;;;11.17;;
6017;SDS011;3037;51.068;13.780;2024-03-08T13:49:07;14.10;;;10.37;;
6017;SDS011;3037;51.068;13.780;2024-03-08T13:51:35;15.70;;;10.70;;
6017;SDS011;3037;51.068;13.780;2024-03-08T13:54:00;12.97;;;10.10;;
6017;SDS011;3037;51.068;13.780;2024-03-08T13:56:27;13.33;;;10.97;;
6017;SDS011;3037;51.068;13.780;2024-03-08T13:58:54;16.47;;;10.77;;
6017;SDS011;3037;51.068;13.780;2024-03-08T14:01:22;21.93;;;10.83;;
6017;SDS011;3037;51.068;13.780;2024-03-08T14:03:47;11.23;;;9.20;;
6017;SDS011;3037;51.068;13.780;2024-03-08T14:06:13;15.27;;;10.70;;
6017;SDS011;3037;51.068;13.780;2024-03-08T14:08:38;13.80;;;10.57;;
6017;SDS011;3037;51.068;13.780;2024-03-08T14:11:04;14.57;;;10.87;;
6017;SDS011;3037;51.068;13.780;2024-03-08T14:13:41;17.90;;;12.10;;
6017;SDS011;3037;51.068;13.780;2024-03-08T14:16:09;26.20;;;11.80;;
6017;SDS011;3037;51.068;13.780;2024-03-08T14:18:35;10.77;;;9.47;;
6017;SDS011;3037;51.068;13.780;2024-03-08T14:21:01;13.60;;;7.80;;
6017;SDS011;3037;51.068;13.780;2024-03-08T14:23:29;11.07;;;9.03;;
6017;SDS011;3037;51.068;13.780;2024-03-08T14:25:54;17.90;;;8.83;;
6017;SDS011;3037;51.068;13.780;2024-03-08T14:28:20;13.90;;;9.20;;
6017;SDS011;3037;51.068;13.780;2024-03-08T14:30:47;11.97;;;9.37;;
6017;SDS011;3037;51.068;13.780;2024-03-08T14:33:13;10.70;;;8.87;;
6017;SDS011;3037;51.068;13.780;2024-03-08T14:35:40;11.30;;;8.43;;
6017;SDS011;3037;51.068;13.780;2024-03-08T14:38:06;11.57;;;8.50;;
6017;SDS011;3037;51.068;13.780;2024-03-08T14:40:36;12.40;;;8.73;;